createdAt,value
2018-06-14T00:00:29.394Z,1011.17
2018-06-14T00:02:22.310Z,1011.12
2018-06-14T00:03:22.334Z,1011.11
2018-06-14T00:05:15.258Z,1011.10
2018-06-14T00:06:15.254Z,1011.13
2018-06-14T00:08:08.161Z,1011.13
2018-06-14T00:09:08.181Z,1011.14
2018-06-14T00:11:01.107Z,1011.12
2018-06-14T00:12:01.105Z,1011.16
2018-06-14T00:13:54.012Z,1011.15
2018-06-14T00:14:54.030Z,1011.13
2018-06-14T00:16:46.958Z,1011.15
2018-06-14T00:17:46.953Z,1011.13
2018-06-14T00:19:39.879Z,1011.09
2018-06-14T00:20:39.879Z,1011.08
2018-06-14T00:22:32.784Z,1011.07
2018-06-14T00:23:32.804Z,1011.09
2018-06-14T00:25:25.731Z,1011.06
2018-06-14T00:26:25.729Z,1011.05
2018-06-14T00:28:18.633Z,1011.06
2018-06-14T00:29:18.652Z,1011.04
2018-06-14T00:31:11.580Z,1011.05
2018-06-14T00:32:11.629Z,1011.03
2018-06-14T00:34:04.484Z,1011.06
2018-06-14T00:35:04.506Z,1011.04
2018-06-14T00:36:57.429Z,1011.05
2018-06-14T00:37:57.427Z,1011.10
2018-06-14T00:39:50.332Z,1011.14
2018-06-14T00:40:50.351Z,1011.15
2018-06-14T00:42:43.291Z,1011.11
2018-06-14T00:43:43.282Z,1011.13
2018-06-14T00:45:36.209Z,1011.12
2018-06-14T00:46:36.209Z,1011.11
2018-06-14T00:48:29.114Z,1011.14
2018-06-14T00:49:29.135Z,1011.16
2018-06-14T00:51:22.060Z,1011.18
2018-06-14T00:52:22.059Z,1011.20
2018-06-14T00:54:14.964Z,1011.21
2018-06-14T00:55:14.984Z,1011.19
2018-06-14T00:57:07.907Z,1011.24
2018-06-14T00:58:07.909Z,1011.24
2018-06-14T01:00:00.812Z,1011.24
2018-06-14T01:01:00.830Z,1011.25
2018-06-14T01:02:53.756Z,1011.25
2018-06-14T01:03:53.754Z,1011.23
2018-06-14T01:05:46.694Z,1011.22
2018-06-14T01:06:46.681Z,1011.21
2018-06-14T01:08:39.586Z,1011.20
2018-06-14T01:09:39.604Z,1011.23
2018-06-14T01:11:32.530Z,1011.19
2018-06-14T01:12:32.527Z,1011.20
2018-06-14T01:14:25.449Z,1011.20
2018-06-14T01:15:25.454Z,1011.17
2018-06-14T01:17:18.381Z,1011.19
2018-06-14T01:18:18.378Z,1011.19
2018-06-14T01:20:11.283Z,1011.19
2018-06-14T01:21:11.301Z,1011.16
2018-06-14T01:23:04.231Z,1011.14
2018-06-14T01:24:04.228Z,1011.18
2018-06-14T01:25:57.132Z,1011.16
2018-06-14T01:26:57.151Z,1011.17
2018-06-14T01:28:50.074Z,1011.17
2018-06-14T01:29:50.076Z,1011.13
2018-06-14T01:31:43.998Z,1011.15
2018-06-14T01:32:43.992Z,1011.12
2018-06-14T01:34:36.893Z,1011.14
2018-06-14T01:35:36.912Z,1011.13
2018-06-14T01:37:29.840Z,1011.14
2018-06-14T01:38:29.839Z,1011.11
2018-06-14T01:40:22.745Z,1011.12
2018-06-14T01:41:22.764Z,1011.10
2018-06-14T01:43:15.687Z,1011.13
2018-06-14T01:44:15.685Z,1011.12
2018-06-14T01:46:08.588Z,1011.19
2018-06-14T01:47:08.605Z,1011.18
2018-06-14T01:49:01.534Z,1011.19
2018-06-14T01:50:01.533Z,1011.19
2018-06-14T01:51:54.439Z,1011.19
2018-06-14T01:52:54.454Z,1011.16
2018-06-14T01:54:47.375Z,1011.18
2018-06-14T01:55:47.376Z,1011.20
2018-06-14T01:57:40.298Z,1011.20
2018-06-14T01:58:40.296Z,1011.25
2018-06-14T02:00:33.199Z,1011.22
2018-06-14T02:01:33.217Z,1011.17
2018-06-14T02:03:26.140Z,1011.19
2018-06-14T02:04:26.138Z,1011.18
2018-06-14T02:06:19.042Z,1011.21
2018-06-14T02:07:19.059Z,1011.20
2018-06-14T02:09:11.998Z,1011.19
2018-06-14T02:10:11.990Z,1011.16
2018-06-14T02:12:04.893Z,1011.15
2018-06-14T02:13:04.914Z,1011.13
2018-06-14T02:14:57.834Z,1011.14
2018-06-14T02:15:57.834Z,1011.16
2018-06-14T02:17:50.740Z,1011.13
2018-06-14T02:18:50.760Z,1011.15
2018-06-14T02:20:43.688Z,1011.17
2018-06-14T02:21:43.680Z,1011.17
2018-06-14T02:23:36.603Z,1011.16
2018-06-14T02:24:36.608Z,1011.14
2018-06-14T02:26:29.512Z,1011.15
2018-06-14T02:27:29.523Z,1011.14
2018-06-14T02:29:22.447Z,1011.14
2018-06-14T02:30:22.445Z,1011.14
2018-06-14T02:32:15.347Z,1011.15
2018-06-14T02:33:15.368Z,1011.15
2018-06-14T02:35:08.289Z,1011.09
2018-06-14T02:36:08.286Z,1011.09
2018-06-14T02:38:01.188Z,1011.07
2018-06-14T02:39:01.208Z,1011.08
2018-06-14T02:40:54.128Z,1011.06
2018-06-14T02:41:54.123Z,1011.07
2018-06-14T02:43:47.026Z,1011.07
2018-06-14T02:44:47.048Z,1011.09
2018-06-14T02:46:39.967Z,1011.03
2018-06-14T02:47:39.974Z,1011.05
2018-06-14T02:49:32.888Z,1011.02
2018-06-14T02:50:32.886Z,1011.04
2018-06-14T02:52:25.786Z,1011.02
2018-06-14T02:53:25.807Z,1011.00
2018-06-14T02:55:18.729Z,1011.01
2018-06-14T02:56:18.727Z,1011.02
2018-06-14T02:58:11.630Z,1011.06
2018-06-14T02:59:11.647Z,1011.03
2018-06-14T03:01:04.572Z,1011.07
2018-06-14T03:02:04.572Z,1011.07
2018-06-14T03:03:57.472Z,1011.10
2018-06-14T03:04:57.489Z,1011.11
2018-06-14T03:06:50.416Z,1011.10
2018-06-14T03:07:50.413Z,1011.08
2018-06-14T03:09:43.317Z,1011.13
2018-06-14T03:10:43.334Z,1011.13
2018-06-14T03:12:36.263Z,1011.06
2018-06-14T03:13:36.255Z,1011.09
2018-06-14T03:15:29.182Z,1011.08
2018-06-14T03:16:29.177Z,1011.10
2018-06-14T03:18:22.082Z,1011.07
2018-06-14T03:19:22.098Z,1011.05
2018-06-14T03:21:15.019Z,1011.02
2018-06-14T03:22:15.020Z,1011.02
2018-06-14T03:24:07.921Z,1010.96
2018-06-14T03:25:07.941Z,1011.00
2018-06-14T03:27:00.862Z,1010.92
2018-06-14T03:28:00.863Z,1010.96
2018-06-14T03:29:53.785Z,1010.95
2018-06-14T03:30:53.781Z,1010.94
2018-06-14T03:32:46.704Z,1010.97
2018-06-14T03:33:46.702Z,1010.95
2018-06-14T03:35:39.624Z,1010.93
2018-06-14T03:36:39.622Z,1010.93
2018-06-14T03:38:32.527Z,1010.90
2018-06-14T03:39:32.547Z,1010.90
2018-06-14T03:41:25.470Z,1010.88
2018-06-14T03:42:25.465Z,1010.90
2018-06-14T03:44:18.369Z,1010.89
2018-06-14T03:45:18.387Z,1010.91
2018-06-14T03:47:11.312Z,1010.90
2018-06-14T03:48:11.311Z,1010.91
2018-06-14T03:50:04.214Z,1010.92
2018-06-14T03:51:04.236Z,1010.92
2018-06-14T03:52:57.155Z,1010.93
2018-06-14T03:53:57.156Z,1010.88
2018-06-14T03:55:50.058Z,1010.85
2018-06-14T03:56:50.075Z,1010.88
2018-06-14T03:58:43.000Z,1010.91
2018-06-14T03:59:42.999Z,1010.91
2018-06-14T04:01:35.930Z,1010.89
2018-06-14T04:02:35.922Z,1010.98
2018-06-14T04:04:28.837Z,1010.94
2018-06-14T04:05:28.856Z,1010.96
2018-06-14T04:07:21.785Z,1010.94
2018-06-14T04:08:21.784Z,1010.99
2018-06-14T04:10:14.697Z,1010.95
2018-06-14T04:11:14.711Z,1010.93
2018-06-14T04:13:07.635Z,1010.93
2018-06-14T04:14:07.635Z,1010.94
2018-06-14T04:16:00.545Z,1010.92
2018-06-14T04:17:00.566Z,1010.91
2018-06-14T04:18:53.685Z,1010.94
2018-06-14T04:19:53.678Z,1010.93
2018-06-14T04:21:46.585Z,1010.89
2018-06-14T04:22:46.605Z,1010.88
2018-06-14T04:24:39.533Z,1010.86
2018-06-14T04:25:39.558Z,1010.88
2018-06-14T04:27:32.549Z,1010.88
2018-06-14T04:28:32.462Z,1010.84
2018-06-14T04:30:25.371Z,1010.84
2018-06-14T04:31:25.393Z,1010.86
2018-06-14T04:33:18.326Z,1010.82
2018-06-14T04:34:18.322Z,1010.82
2018-06-14T04:36:11.232Z,1010.81
2018-06-14T04:37:11.252Z,1010.80
2018-06-14T04:39:05.185Z,1010.80
2018-06-14T04:40:05.185Z,1010.79
2018-06-14T04:41:58.093Z,1010.76
2018-06-14T04:42:58.116Z,1010.76
2018-06-14T04:44:51.052Z,1010.74
2018-06-14T04:45:51.059Z,1010.77
2018-06-14T04:47:43.985Z,1010.80
2018-06-14T04:48:43.987Z,1010.79
2018-06-14T04:50:36.911Z,1010.81
2018-06-14T04:51:36.915Z,1010.81
2018-06-14T04:53:30.369Z,1010.80
2018-06-14T04:54:30.351Z,1010.78
2018-06-14T04:56:23.272Z,1010.77
2018-06-14T04:57:23.283Z,1010.76
2018-06-14T04:59:16.219Z,1010.75
2018-06-14T05:00:16.218Z,1010.75
2018-06-14T05:02:09.137Z,1010.79
2018-06-14T05:03:09.163Z,1010.81
2018-06-14T05:05:02.096Z,1010.82
2018-06-14T05:06:02.107Z,1010.85
2018-06-14T05:07:55.051Z,1010.84
2018-06-14T05:08:55.047Z,1010.83
2018-06-14T05:10:47.968Z,1010.79
2018-06-14T05:11:47.992Z,1010.85
2018-06-14T05:13:40.970Z,1010.78
2018-06-14T05:14:40.938Z,1010.75
2018-06-14T05:16:33.850Z,1010.75
2018-06-14T05:17:33.873Z,1010.73
2018-06-14T05:19:26.813Z,1010.72
2018-06-14T05:20:26.819Z,1010.69
2018-06-14T05:22:19.734Z,1010.69
2018-06-14T05:23:19.761Z,1010.64
2018-06-14T05:25:12.696Z,1010.68
2018-06-14T05:26:12.706Z,1010.74
2018-06-14T05:28:05.626Z,1010.72
2018-06-14T05:29:05.648Z,1010.74
2018-06-14T05:30:58.589Z,1010.74
2018-06-14T05:31:58.596Z,1010.77
2018-06-14T05:33:51.536Z,1010.77
2018-06-14T05:34:51.541Z,1010.79
2018-06-14T05:36:44.493Z,1010.86
2018-06-14T05:37:44.494Z,1010.83
2018-06-14T05:39:37.444Z,1010.82
2018-06-14T05:40:37.453Z,1010.84
2018-06-14T05:42:30.403Z,1010.85
2018-06-14T05:43:30.407Z,1010.83
2018-06-14T05:45:23.349Z,1010.80
2018-06-14T05:46:23.355Z,1010.80
2018-06-14T05:48:16.283Z,1010.75
2018-06-14T05:49:16.313Z,1010.71
2018-06-14T05:51:09.263Z,1010.73
2018-06-14T05:52:09.271Z,1010.70
2018-06-14T05:54:02.197Z,1010.71
2018-06-14T05:55:02.225Z,1010.70
2018-06-14T05:56:55.176Z,1010.71
2018-06-14T05:57:55.180Z,1010.74
2018-06-14T05:59:48.125Z,1010.73
2018-06-14T06:00:48.142Z,1010.73
2018-06-14T06:02:41.063Z,1010.73
2018-06-14T06:03:41.091Z,1010.72
2018-06-14T06:05:34.045Z,1010.71
2018-06-14T06:06:34.054Z,1010.73
2018-06-14T06:08:26.983Z,1010.72
2018-06-14T06:09:27.012Z,1010.73
2018-06-14T06:11:19.963Z,1010.76
2018-06-14T06:12:19.970Z,1010.75
2018-06-14T06:14:12.894Z,1010.78
2018-06-14T06:15:12.925Z,1010.76
2018-06-14T06:17:05.868Z,1010.77
2018-06-14T06:18:05.878Z,1010.75
2018-06-14T06:19:58.805Z,1010.75
2018-06-14T06:20:58.836Z,1010.73
2018-06-14T06:22:51.783Z,1010.73
2018-06-14T06:23:51.793Z,1010.74
2018-06-14T06:25:44.748Z,1010.74
2018-06-14T06:26:44.753Z,1010.70
2018-06-14T06:28:37.679Z,1010.69
2018-06-14T06:29:37.712Z,1010.66
2018-06-14T06:31:30.665Z,1010.65
2018-06-14T06:32:30.672Z,1010.63
2018-06-14T06:34:23.602Z,1010.60
2018-06-14T06:35:23.635Z,1010.59
2018-06-14T06:37:16.589Z,1010.56
2018-06-14T06:38:16.596Z,1010.55
2018-06-14T06:40:09.550Z,1010.58
2018-06-14T06:41:09.559Z,1010.56
2018-06-14T06:43:02.496Z,1010.56
2018-06-14T06:44:02.531Z,1010.52
2018-06-14T06:45:55.495Z,1010.51
2018-06-14T06:46:55.507Z,1010.52
2018-06-14T06:48:48.444Z,1010.54
2018-06-14T06:49:48.474Z,1010.53
2018-06-14T06:51:41.431Z,1010.55
2018-06-14T06:52:41.443Z,1010.56
2018-06-14T06:54:34.377Z,1010.56
2018-06-14T06:55:34.412Z,1010.55
2018-06-14T06:57:27.363Z,1010.53
2018-06-14T06:58:27.378Z,1010.49
2018-06-14T07:00:20.334Z,1010.54
2018-06-14T07:01:20.345Z,1010.49
2018-06-14T07:03:13.277Z,1010.48
2018-06-14T07:04:13.312Z,1010.48
2018-06-14T07:06:06.341Z,1010.46
2018-06-14T07:07:06.281Z,1010.42
2018-06-14T07:08:59.231Z,1010.43
2018-06-14T07:09:59.256Z,1010.47
2018-06-14T07:11:52.242Z,1010.49
2018-06-14T07:12:52.329Z,1010.45
2018-06-14T07:14:45.156Z,1010.48
2018-06-14T07:15:45.189Z,1010.43
2018-06-14T07:17:38.148Z,1010.44
2018-06-14T07:18:38.158Z,1010.46
2018-06-14T07:20:31.116Z,1010.44
2018-06-14T07:21:31.145Z,1010.48
2018-06-14T07:23:24.063Z,1010.45
2018-06-14T07:24:24.097Z,1010.41
2018-06-14T07:26:17.056Z,1010.37
2018-06-14T07:27:17.067Z,1010.36
2018-06-14T07:29:10.005Z,1010.38
2018-06-14T07:30:10.044Z,1010.39
2018-06-14T07:32:02.991Z,1010.29
2018-06-14T07:33:03.004Z,1010.32
2018-06-14T07:34:55.938Z,1010.31
2018-06-14T07:35:55.967Z,1010.34
2018-06-14T07:37:48.917Z,1010.34
2018-06-14T07:38:48.931Z,1010.34
2018-06-14T07:40:41.883Z,1010.36
2018-06-14T07:41:41.888Z,1010.33
2018-06-14T07:43:34.819Z,1010.29
2018-06-14T07:44:34.845Z,1010.27
2018-06-14T07:46:27.792Z,1010.25
2018-06-14T07:47:27.803Z,1010.21
2018-06-14T07:49:20.732Z,1010.22
2018-06-14T07:50:20.760Z,1010.23
2018-06-14T07:52:13.703Z,1010.27
2018-06-14T07:53:13.715Z,1010.28
2018-06-14T07:55:06.709Z,1010.26
2018-06-14T07:56:06.671Z,1010.27
2018-06-14T07:57:59.621Z,1010.22
2018-06-14T07:58:59.627Z,1010.19
2018-06-14T08:00:52.559Z,1010.16
2018-06-14T08:01:52.581Z,1010.15
2018-06-14T08:03:45.525Z,1010.15
2018-06-14T08:04:45.533Z,1010.17
2018-06-14T08:06:38.476Z,1010.17
2018-06-14T08:07:38.484Z,1010.19
2018-06-14T08:09:31.405Z,1010.17
2018-06-14T08:10:31.436Z,1010.10
2018-06-14T08:12:24.482Z,1010.11
2018-06-14T08:13:24.389Z,1010.07
2018-06-14T08:15:17.312Z,1010.09
2018-06-14T08:16:17.340Z,1010.05
2018-06-14T08:18:10.283Z,1010.11
2018-06-14T08:19:10.290Z,1010.09
2018-06-14T08:21:03.215Z,1010.14
2018-06-14T08:22:03.240Z,1010.11
2018-06-14T08:23:56.185Z,1010.09
2018-06-14T08:24:56.192Z,1010.01
2018-06-14T08:26:49.143Z,1010.03
2018-06-14T08:27:49.146Z,1010.02
2018-06-14T08:29:42.065Z,1010.01
2018-06-14T08:30:42.094Z,1010.03
2018-06-14T08:32:35.034Z,1010.02
2018-06-14T08:33:35.043Z,1010.01
2018-06-14T08:35:27.962Z,1010.01
2018-06-14T08:36:27.991Z,1010.01
2018-06-14T08:38:20.964Z,1010.05
2018-06-14T08:39:20.940Z,1009.98
2018-06-14T08:41:13.865Z,1009.96
2018-06-14T08:42:13.889Z,1009.97
2018-06-14T08:44:06.834Z,1010.03
2018-06-14T08:45:06.839Z,1009.96
2018-06-14T08:46:59.761Z,1009.94
2018-06-14T08:47:59.789Z,1009.97
2018-06-14T08:49:52.739Z,1009.92
2018-06-14T08:50:52.742Z,1009.94
2018-06-14T08:52:45.683Z,1009.91
2018-06-14T08:53:45.691Z,1009.93
2018-06-14T08:55:38.614Z,1009.93
2018-06-14T08:56:38.643Z,1009.92
2018-06-14T08:58:31.594Z,1009.90
2018-06-14T08:59:31.600Z,1009.89
2018-06-14T09:01:24.527Z,1009.86
2018-06-14T09:02:24.554Z,1009.87
2018-06-14T09:04:17.498Z,1009.90
2018-06-14T09:05:17.506Z,1009.88
2018-06-14T09:07:10.437Z,1009.83
2018-06-14T09:08:10.465Z,1009.82
2018-06-14T09:10:03.412Z,1009.77
2018-06-14T09:11:03.420Z,1009.73
2018-06-14T09:12:56.342Z,1009.75
2018-06-14T09:13:56.374Z,1009.71
2018-06-14T09:15:49.321Z,1009.72
2018-06-14T09:16:49.328Z,1009.74
2018-06-14T09:18:42.289Z,1009.68
2018-06-14T09:19:42.283Z,1009.71
2018-06-14T09:21:35.211Z,1009.67
2018-06-14T09:22:35.236Z,1009.68
2018-06-14T09:24:28.189Z,1009.70
2018-06-14T09:25:28.192Z,1009.68
2018-06-14T09:27:21.118Z,1009.69
2018-06-14T09:28:21.151Z,1009.72
2018-06-14T09:30:14.093Z,1009.70
2018-06-14T09:31:14.103Z,1009.65
2018-06-14T09:33:07.030Z,1009.69
2018-06-14T09:34:07.058Z,1009.68
2018-06-14T09:36:00.009Z,1009.71
2018-06-14T09:37:00.016Z,1009.67
2018-06-14T09:38:52.941Z,1009.67
2018-06-14T09:39:52.970Z,1009.64
2018-06-14T09:41:45.921Z,1009.57
2018-06-14T09:42:45.972Z,1009.57
2018-06-14T09:44:38.878Z,1009.54
2018-06-14T09:45:38.880Z,1009.54
2018-06-14T09:47:31.808Z,1009.57
2018-06-14T09:48:31.836Z,1009.56
2018-06-14T09:50:24.810Z,1009.55
2018-06-14T09:51:24.793Z,1009.59
2018-06-14T09:53:17.718Z,1009.56
2018-06-14T09:54:17.748Z,1009.58
2018-06-14T09:56:10.700Z,1009.54
2018-06-14T09:57:10.701Z,1009.59
2018-06-14T09:59:03.629Z,1009.57
2018-06-14T10:00:03.656Z,1009.58
2018-06-14T10:01:56.607Z,1009.58
2018-06-14T10:02:56.610Z,1009.57
2018-06-14T10:04:49.535Z,1009.57
2018-06-14T10:05:49.567Z,1009.59
2018-06-14T10:07:42.510Z,1009.59
2018-06-14T10:08:42.516Z,1009.58
2018-06-14T10:10:35.465Z,1009.62
2018-06-14T10:11:35.468Z,1009.60
2018-06-14T10:13:28.394Z,1009.58
2018-06-14T10:14:28.425Z,1009.56
2018-06-14T10:16:21.367Z,1009.55
2018-06-14T10:17:21.375Z,1009.60
2018-06-14T10:19:14.301Z,1009.57
2018-06-14T10:20:14.326Z,1009.54
2018-06-14T10:22:07.273Z,1009.58
2018-06-14T10:23:07.282Z,1009.58
2018-06-14T10:25:00.207Z,1009.51
2018-06-14T10:26:00.234Z,1009.49
2018-06-14T10:27:53.180Z,1009.51
2018-06-14T10:28:53.187Z,1009.56
2018-06-14T10:30:46.140Z,1009.64
2018-06-14T10:31:46.144Z,1009.66
2018-06-14T10:33:39.069Z,1009.53
2018-06-14T10:34:39.101Z,1009.50
2018-06-14T10:36:32.049Z,1009.53
2018-06-14T10:37:32.055Z,1009.41
2018-06-14T10:39:24.986Z,1009.48
2018-06-14T10:40:25.011Z,1009.53
2018-06-14T10:42:17.964Z,1009.46
2018-06-14T10:43:17.975Z,1009.44
2018-06-14T10:45:10.898Z,1009.42
2018-06-14T10:46:10.928Z,1009.42
2018-06-14T10:48:03.873Z,1009.40
2018-06-14T10:49:03.886Z,1009.39
2018-06-14T10:50:56.836Z,1009.37
2018-06-14T10:51:56.843Z,1009.40
2018-06-14T10:53:49.773Z,1009.41
2018-06-14T10:54:49.802Z,1009.38
2018-06-14T10:56:42.756Z,1009.37
2018-06-14T10:57:42.761Z,1009.35
2018-06-14T10:59:35.692Z,1009.33
2018-06-14T11:00:35.723Z,1009.35
2018-06-14T11:02:28.676Z,1009.30
2018-06-14T11:03:28.687Z,1009.26
2018-06-14T11:05:21.620Z,1009.33
2018-06-14T11:06:21.650Z,1009.27
2018-06-14T11:08:14.607Z,1009.27
2018-06-14T11:09:14.615Z,1009.24
2018-06-14T11:11:07.546Z,1009.18
2018-06-14T11:12:07.572Z,1009.18
2018-06-14T11:14:00.523Z,1009.20
2018-06-14T11:15:00.526Z,1009.11
2018-06-14T11:16:53.481Z,1009.15
2018-06-14T11:17:53.488Z,1009.13
2018-06-14T11:19:46.419Z,1009.17
2018-06-14T11:20:46.448Z,1009.11
2018-06-14T11:22:39.402Z,1009.20
2018-06-14T11:23:39.404Z,1009.17
2018-06-14T11:25:32.331Z,1009.10
2018-06-14T11:26:32.359Z,1009.09
2018-06-14T11:28:25.313Z,1009.04
2018-06-14T11:29:25.318Z,1009.01
2018-06-14T11:31:18.246Z,1009.11
2018-06-14T11:32:18.274Z,1009.06
2018-06-14T11:34:11.222Z,1009.00
2018-06-14T11:35:11.233Z,1008.96
2018-06-14T11:37:04.185Z,1008.94
2018-06-14T11:38:04.191Z,1008.96
2018-06-14T11:39:57.117Z,1008.84
2018-06-14T11:40:57.144Z,1008.90
2018-06-14T11:42:50.097Z,1008.95
2018-06-14T11:43:50.103Z,1008.92
2018-06-14T11:45:43.038Z,1008.91
2018-06-14T11:46:43.071Z,1008.91
2018-06-14T11:48:36.019Z,1008.83
2018-06-14T11:49:36.025Z,1008.84
2018-06-14T11:51:28.962Z,1008.90
2018-06-14T11:52:28.981Z,1008.85
2018-06-14T11:54:21.934Z,1008.84
2018-06-14T11:55:21.937Z,1008.80
2018-06-14T11:57:14.867Z,1008.73
2018-06-14T11:58:14.898Z,1008.79
2018-06-14T12:00:07.852Z,1008.85
2018-06-14T12:01:07.861Z,1008.89
2018-06-14T12:03:00.807Z,1008.79
2018-06-14T12:04:00.810Z,1008.74
2018-06-14T12:05:53.739Z,1008.70
2018-06-14T12:06:53.768Z,1008.65
2018-06-14T12:08:46.720Z,1008.69
2018-06-14T12:09:46.726Z,1008.70
2018-06-14T12:11:39.651Z,1008.68
2018-06-14T12:12:39.686Z,1008.67
2018-06-14T12:14:32.638Z,1008.66
2018-06-14T12:15:32.648Z,1008.63
2018-06-14T12:17:25.575Z,1008.72
2018-06-14T12:18:25.600Z,1008.65
2018-06-14T12:20:18.552Z,1008.70
2018-06-14T12:21:18.577Z,1008.67
2018-06-14T12:23:11.488Z,1008.67
2018-06-14T12:24:11.518Z,1008.71
2018-06-14T12:26:04.469Z,1008.65
2018-06-14T12:27:04.473Z,1008.60
2018-06-14T12:28:57.436Z,1008.63
2018-06-14T12:29:57.433Z,1008.62
2018-06-14T12:31:50.359Z,1008.61
2018-06-14T12:32:50.387Z,1008.61
2018-06-14T12:34:43.339Z,1008.56
2018-06-14T12:35:43.343Z,1008.51
2018-06-14T12:37:36.283Z,1008.55
2018-06-14T12:38:36.308Z,1008.50
2018-06-14T12:40:29.259Z,1008.48
2018-06-14T12:41:29.266Z,1008.52
2018-06-14T12:43:22.193Z,1008.48
2018-06-14T12:44:22.222Z,1008.51
2018-06-14T12:46:15.175Z,1008.46
2018-06-14T12:47:15.180Z,1008.52
2018-06-14T12:49:08.110Z,1008.51
2018-06-14T12:50:08.138Z,1008.47
2018-06-14T12:52:01.091Z,1008.50
2018-06-14T12:53:01.098Z,1008.47
2018-06-14T12:54:54.059Z,1008.38
2018-06-14T12:55:54.056Z,1008.44
2018-06-14T12:57:46.987Z,1008.46
2018-06-14T12:58:47.015Z,1008.45
2018-06-14T13:00:39.971Z,1008.44
2018-06-14T13:01:39.974Z,1008.44
2018-06-14T13:03:32.906Z,1008.41
2018-06-14T13:04:32.932Z,1008.31
2018-06-14T13:06:25.887Z,1008.36
2018-06-14T13:07:25.892Z,1008.40
2018-06-14T13:09:18.823Z,1008.33
2018-06-14T13:10:18.851Z,1008.38
2018-06-14T13:12:11.810Z,1008.33
2018-06-14T13:13:11.811Z,1008.37
2018-06-14T13:15:04.741Z,1008.40
2018-06-14T13:16:04.772Z,1008.42
2018-06-14T13:17:57.727Z,1008.35
2018-06-14T13:18:57.740Z,1008.39
2018-06-14T13:20:50.698Z,1008.40
2018-06-14T13:21:50.706Z,1008.37
2018-06-14T13:23:43.637Z,1008.40
2018-06-14T13:24:43.667Z,1008.41
2018-06-14T13:26:36.627Z,1008.39
2018-06-14T13:27:36.639Z,1008.42
2018-06-14T13:29:29.569Z,1008.41
2018-06-14T13:30:29.697Z,1008.41
2018-06-14T13:32:22.560Z,1008.42
2018-06-14T13:33:22.560Z,1008.36
2018-06-14T13:35:15.517Z,1008.39
2018-06-14T13:36:15.522Z,1008.37
2018-06-14T13:38:08.473Z,1008.35
2018-06-14T13:39:08.478Z,1008.34
2018-06-14T13:41:01.432Z,1008.32
2018-06-14T13:42:01.437Z,1008.36
2018-06-14T13:43:54.365Z,1008.35
2018-06-14T13:44:54.395Z,1008.42
2018-06-14T13:46:47.350Z,1008.37
2018-06-14T13:47:47.450Z,1008.38
2018-06-14T13:49:40.286Z,1008.32
2018-06-14T13:50:40.325Z,1008.33
2018-06-14T13:52:33.265Z,1008.33
2018-06-14T13:53:33.275Z,1008.33
2018-06-14T13:55:26.265Z,1008.29
2018-06-14T13:56:26.235Z,1008.28
2018-06-14T13:58:19.188Z,1008.27
2018-06-14T13:59:19.193Z,1008.28
2018-06-14T14:01:12.205Z,1008.21
2018-06-14T14:02:12.159Z,1008.26
2018-06-14T14:04:05.112Z,1008.28
2018-06-14T14:05:05.153Z,1008.35
2018-06-14T14:06:58.074Z,1008.23
2018-06-14T14:07:58.075Z,1008.25
2018-06-14T14:09:51.228Z,1008.21
2018-06-14T14:10:51.236Z,1008.19
2018-06-14T14:12:44.241Z,1008.19
2018-06-14T14:13:44.198Z,1008.27
2018-06-14T14:15:37.130Z,1008.25
2018-06-14T14:16:37.161Z,1008.22
2018-06-14T14:18:30.114Z,1008.23
2018-06-14T14:19:30.120Z,1008.23
2018-06-14T14:21:23.053Z,1008.23
2018-06-14T14:22:23.081Z,1008.17
2018-06-14T14:24:16.034Z,1008.18
2018-06-14T14:25:16.040Z,1008.18
2018-06-14T14:27:08.972Z,1008.20
2018-06-14T14:28:09.002Z,1008.20
2018-06-14T14:30:01.958Z,1008.15
2018-06-14T14:31:01.965Z,1008.20
2018-06-14T14:32:54.918Z,1008.16
2018-06-14T14:33:54.925Z,1008.11
2018-06-14T14:35:47.855Z,1008.14
2018-06-14T14:36:47.973Z,1008.18
2018-06-14T14:38:40.841Z,1008.18
2018-06-14T14:39:40.846Z,1008.24
2018-06-14T14:41:33.824Z,1008.29
2018-06-14T14:42:33.857Z,1008.25
2018-06-14T14:44:26.812Z,1008.28
2018-06-14T14:45:26.821Z,1008.29
2018-06-14T14:47:19.755Z,1008.27
2018-06-14T14:48:19.784Z,1008.22
2018-06-14T14:50:13.227Z,1008.30
2018-06-14T14:51:13.241Z,1008.31
2018-06-14T14:53:06.256Z,1008.27
2018-06-14T14:54:06.207Z,1008.32
2018-06-14T14:55:59.137Z,1008.31
2018-06-14T14:56:59.168Z,1008.31
2018-06-14T14:58:52.122Z,1008.28
2018-06-14T14:59:52.137Z,1008.27
2018-06-14T15:01:45.559Z,1008.30
2018-06-14T15:02:45.591Z,1008.27
2018-06-14T15:04:38.544Z,1008.21
2018-06-14T15:05:38.555Z,1008.24
2018-06-14T15:07:31.498Z,1008.21
2018-06-14T15:08:31.528Z,1008.17
2018-06-14T15:10:26.007Z,1008.24
2018-06-14T15:11:26.021Z,1008.24
2018-06-14T15:13:19.044Z,1008.20
2018-06-14T15:14:19.080Z,1008.22
2018-06-14T15:16:12.029Z,1008.19
2018-06-14T15:17:12.072Z,1008.21
2018-06-14T15:19:06.485Z,1008.26
2018-06-14T15:20:06.488Z,1008.24
2018-06-14T15:21:59.444Z,1008.29
2018-06-14T15:22:59.479Z,1008.30
2018-06-14T15:24:53.439Z,1008.35
2018-06-14T15:25:53.471Z,1008.36
2018-06-14T15:27:46.992Z,1008.37
2018-06-14T15:28:47.019Z,1008.35
2018-06-14T15:30:40.475Z,1008.35
2018-06-14T15:31:40.487Z,1008.35
2018-06-14T15:33:33.514Z,1008.36
2018-06-14T15:34:33.544Z,1008.37
2018-06-14T15:36:26.588Z,1008.37
2018-06-14T15:37:26.597Z,1008.37
2018-06-14T15:39:19.642Z,1008.38
2018-06-14T15:40:19.654Z,1008.33
2018-06-14T15:42:12.683Z,1008.39
2018-06-14T15:43:12.717Z,1008.39
2018-06-14T15:45:05.755Z,1008.48
2018-06-14T15:46:05.769Z,1008.47
2018-06-14T15:47:59.240Z,1008.50
2018-06-14T15:48:59.235Z,1008.48
2018-06-14T15:50:52.282Z,1008.49
2018-06-14T15:51:52.291Z,1008.47
2018-06-14T15:53:46.243Z,1008.52
2018-06-14T15:54:46.272Z,1008.55
2018-06-14T15:56:39.728Z,1008.52
2018-06-14T15:57:39.735Z,1008.58
2018-06-14T15:59:34.227Z,1008.60
2018-06-14T16:00:34.224Z,1008.65
2018-06-14T16:02:27.250Z,1008.67
2018-06-14T16:03:27.278Z,1008.70
2018-06-14T16:05:20.736Z,1008.71
2018-06-14T16:06:20.744Z,1008.74
2018-06-14T16:08:13.774Z,1008.82
2018-06-14T16:09:13.805Z,1008.85
2018-06-14T16:11:06.852Z,1008.90
2018-06-14T16:12:06.858Z,1008.88
2018-06-14T16:13:59.886Z,1008.90
2018-06-14T16:14:59.915Z,1008.96
2018-06-14T16:16:52.961Z,1008.99
2018-06-14T16:17:52.971Z,1008.97
2018-06-14T16:19:45.999Z,1009.01
2018-06-14T16:20:46.028Z,1008.99
2018-06-14T16:22:39.074Z,1009.02
2018-06-14T16:23:39.082Z,1008.98
2018-06-14T16:25:32.007Z,1009.05
2018-06-14T16:26:32.039Z,1009.06
2018-06-14T16:28:25.495Z,1009.07
2018-06-14T16:29:25.500Z,1009.10
2018-06-14T16:31:18.963Z,1009.14
2018-06-14T16:32:18.968Z,1009.11
2018-06-14T16:34:12.009Z,1009.16
2018-06-14T16:35:12.029Z,1009.22
2018-06-14T16:37:05.072Z,1009.25
2018-06-14T16:38:05.081Z,1009.21
2018-06-14T16:39:58.113Z,1009.25
2018-06-14T16:40:58.137Z,1009.27
2018-06-14T16:42:51.085Z,1009.24
2018-06-14T16:43:51.094Z,1009.30
2018-06-14T16:45:45.132Z,1009.38
2018-06-14T16:46:44.556Z,1009.37
2018-06-14T16:48:37.504Z,1009.38
2018-06-14T16:49:37.512Z,1009.38
2018-06-14T16:51:30.476Z,1009.36
2018-06-14T16:52:30.504Z,1009.35
2018-06-14T16:54:23.493Z,1009.37
2018-06-14T16:55:23.521Z,1009.39
2018-06-14T16:57:16.466Z,1009.36
2018-06-14T16:58:16.469Z,1009.39
2018-06-14T17:00:09.406Z,1009.42
2018-06-14T17:01:09.427Z,1009.41
2018-06-14T17:03:02.493Z,1009.37
2018-06-14T17:04:02.387Z,1009.39
2018-06-14T17:05:55.312Z,1009.38
2018-06-14T17:06:55.340Z,1009.34
2018-06-14T17:08:48.386Z,1009.39
2018-06-14T17:09:48.397Z,1009.36
2018-06-14T17:11:41.358Z,1009.38
2018-06-14T17:12:41.352Z,1009.43
2018-06-14T17:14:34.378Z,1009.40
2018-06-14T17:15:34.404Z,1009.42
2018-06-14T17:17:27.354Z,1009.44
2018-06-14T17:18:27.359Z,1009.45
2018-06-14T17:20:20.804Z,1009.40
2018-06-14T17:21:20.826Z,1009.43
2018-06-14T17:23:13.771Z,1009.44
2018-06-14T17:24:13.779Z,1009.42
2018-06-14T17:26:08.246Z,1009.50